Hastings Natural History Reservation, California Weather observations

Data are for 10 minute period ending at time listed.
 Day   Time   Solar   Ave.   Ave.  Ave.  Vector  Max.   Baro.   Total    
  of    of     Rad.   Air    Rel.  Wind   Wind   Wind  Press.  Precip.   
Year   Day            Temp.  Hum.  Speed  Dir.   Gust                    
2014   (PST)  Kw/m2    F      %     mph   deg.    mph    mb.     in.     
-------------------------------------------------------------------------
 326   15:40   0.05   57.5   100    4.9   252    15.2   956.7    0.00 
 326   15:50   0.04   56.9   100    4.4   259    11.5   956.7    0.00 
 326   16:00   0.04   56.7   100    2.9   251     8.6   956.9    0.00 
 326   16:10   0.06   56.4   100    4.0   247    10.8   956.8    0.00 
 326   16:20   0.04   56.4   100    3.3   242     8.8   956.9    0.00 
 326   16:30   0.01   56.4   100    2.3   258     7.4   957.1    0.00 
 326   16:40   0.01   56.3   100    2.9   263     9.0   957.3    0.00 
 326   16:50   0.02   56.0   100    2.6   261     9.5   957.4    0.00 
 326   17:00   0.01   55.7    99    2.4   319     7.9   957.5    0.00 
 326   17:10   0.01   55.4    98    2.1   281     5.3   957.5    0.00 
 326   17:20   0.01   55.3    98    1.8   261     7.3   957.4    0.00 
 326   17:30   0.01   55.1    98    1.9   253     5.7   957.3    0.00 
 326   17:40   0.00   55.0    98    2.2   246     5.1   957.4    0.00 
 326   17:50   0.00   55.0    99    1.9   244     7.3   957.4    0.00 
 326   18:00   0.00   54.9    99    2.4   257     5.8   957.4    0.00 
 326   18:10   0.00   54.9    99    1.5   257     6.6   957.4    0.00 
 326   18:20   0.00   54.9    99    2.6   258     8.8   957.5    0.00 
 326   18:30   0.00   54.9   100    1.7   243     5.7   957.5    0.00 
 326   18:40   0.00   54.9   100    0.9   323     3.0   957.4    0.00 
 326   18:50   0.00   54.7   100    1.1   327     3.0   957.4    0.00 
 326   19:00   0.00   54.5   100    0.5   327     2.3   957.4    0.00 
 326   19:10   0.00   54.5   100    0.6   339     4.7   957.4    0.00 
 326   19:20   0.00   54.1    99    0.6   264     2.7   957.6    0.00 
 326   19:30   0.00   53.9   100    2.0   247     6.8   957.6    0.00 
 326   19:40   0.00   53.9   100    1.0   324     3.8   957.6    0.00 
 326   19:50   0.00   53.6   100    1.8   257     5.7   957.7    0.00 
 326   20:00   0.00   53.4   100    2.7   257     5.6   957.7    0.00 
 326   20:10   0.00   53.3    99    1.4   273     5.8   957.9    0.00 
 326   20:20   0.00   53.1    99    1.3   264     3.7   958.0    0.00 
 326   20:30   0.00   52.7    99    3.3   248     9.1   958.3    0.00 
 326   20:40   0.00   52.4    99    3.2   243     9.6   958.1    0.00 
 326   20:50   0.00   52.2    99    3.0   250     6.9   958.3    0.00 
 326   21:00   0.00   52.0    99    1.6   248     6.3   958.5    0.00 
 326   21:10   0.00   52.0    99    1.0   263     4.2   958.5    0.00 
 326   21:20   0.00   52.0    98    1.8   249     5.4   958.5    0.00 
 326   21:30   0.00   52.0    98    0.9   271     3.3   958.5    0.00 
 326   21:40   0.00   51.9    98    1.5   253     4.3   958.7    0.00 
 326   21:50   0.00   51.8    98    0.6   268     2.9   958.8    0.00 
 326   22:00   0.00   51.8    98    1.3    20     2.4   958.8    0.00 
 326   22:10   0.00   51.3    98    1.5    49     2.6   958.8    0.00 
 326   22:20   0.00   50.6    98    0.8    36     3.1   958.9    0.00 
 326   22:30   0.00   50.1    98    1.7    52     3.8   959.0    0.00 
 326   22:40   0.00   49.1    98    1.9    51     3.3   959.0    0.00 
 326   22:50   0.00   48.7    98    2.2    50     3.7   959.1    0.00 
 326   23:00   0.00   48.5    98    1.5    51     3.1   959.1    0.00 
 326   23:10   0.00   47.7    99    0.8    59     2.3   959.3    0.00 
 326   23:20   0.00   47.0    99    1.3    49     2.5   959.3    0.00 
 326   23:30   0.00   46.5    99    1.7    52     2.8   959.3    0.00 
 326   23:40   0.00   46.3    99    0.8    56     2.5   959.3    0.00 
 326   23:50   0.00   46.1    99    1.5    49     3.4   959.3    0.00 
 327    0:00   0.00   45.9   100    2.1    46     4.2   959.3    0.00 
 327    0:10   0.00   46.1   100    2.0    57     3.8   959.3    0.00 
 327    0:20   0.00   46.0   100    1.9    69     4.0   959.4    0.00 
 327    0:30   0.00   45.8   100    1.2    81     3.6   959.3    0.00 
 327    0:40   0.00   45.4   100    1.2    82     4.5   959.2    0.00 
 327    0:50   0.00   45.8   100    2.8    76     5.9   959.3    0.00 
 327    1:00   0.00   45.8    99    1.5    77     4.6   959.4    0.00 
 327    1:10   0.00   44.5    98    0.4    62     2.5   959.4    0.00 
 327    1:20   0.00   44.6   100    2.4    82     5.0   959.2    0.00 
 327    1:30   0.00   45.2    99    0.7    84     5.5   959.1    0.00 
 327    1:40   0.00   45.1   100    1.5    72     4.5   959.1    0.00 
 327    1:50   0.00   45.1   100    1.3    66     5.8   959.0    0.00 
 327    2:00   0.00   45.2   100    1.4    62     3.1   959.1    0.00 
 327    2:10   0.00   45.3   100    1.6    68     3.7   959.1    0.00 
 327    2:20   0.00   44.1    99    1.0    72     2.7   959.2    0.00 
 327    2:30   0.00   44.1   100    1.5    85     5.2   959.3    0.00 
 327    2:40   0.00   44.4   100    1.0    85     3.5   959.2    0.00 
 327    2:50   0.00   44.1   100    1.3    77     3.9   959.2    0.00 
 327    3:00   0.00   43.3    99    0.3   105     1.3   959.2    0.00 
 327    3:10   0.00   43.0   100    1.4    78     3.7   959.2    0.00 
 327    3:20   0.00   42.6    99    0.4    67     1.5   959.2    0.00 
 327    3:30   0.00   41.5   100    0.2   103     1.4   959.0    0.00 
 327    3:40   0.00   40.6   100    1.0   110     3.4   958.8    0.00 
 327    3:50   0.00   40.9   100    1.2   108     3.1   958.8    0.00 
 327    4:00   0.00   40.0   100    0.5   236     1.9   958.8    0.00 
 327    4:10   0.00   39.9   100    0.7    66     4.2   959.0    0.00 
 327    4:20   0.00   39.5   100    1.0   178     4.7   959.2    0.00 
 327    4:30   0.00   41.0   100    2.1    76     5.3   959.0    0.00 
 327    4:40   0.00   40.7   100    1.2    88     5.8   959.1    0.00 
 327    4:50   0.00   40.1   100    2.0   101     6.0   959.2    0.01 
 327    5:00   0.00   42.0   100    4.0    79     8.9   959.2    0.00 
 327    5:10   0.00   41.4    96    1.8   115     5.9   959.3    0.00 
 327    5:20   0.00   39.2    97    0.6   264     2.5   959.7    0.00 
 327    5:30   0.00   38.7    98    0.5   236     2.0   959.7    0.00 
 327    5:40   0.00   38.3    98    1.2   122     4.1   959.4    0.00 
 327    5:50   0.00   38.1    98    1.3   224     3.1   959.4    0.00 
 327    6:00   0.00   37.7    99    1.0   159     3.6   959.6    0.00 
 327    6:10   0.00   38.4   100    2.0   110     5.8   959.5    0.00 
 327    6:20   0.00   40.9    98    3.0    94     6.4   959.5    0.00 
 327    6:30   0.00   40.5    95    2.6    76     7.1   959.6    0.00 
 327    6:40   0.00   38.7    92    1.8   227     3.7   959.8    0.00 
 327    6:50   0.00   37.2    96    0.5    27     1.8   960.2    0.00 
 327    7:00   0.00   37.7    97    0.8    61     2.2   960.3    0.00 
 327    7:10   0.00   37.3    97    0.5   182     2.3   960.1    0.00 
 327    7:20   0.00   37.5    98    1.1    71     2.7   959.9    0.00 
 327    7:30   0.00   37.3    98    1.4   102     4.8   959.8    0.00 
 327    7:40   0.00   36.8    98    1.3   227     3.9   960.0    0.00 
 327    7:50   0.00   36.3    99    0.7    82     4.0   960.0    0.00 
 327    8:00   0.00   36.8    98    0.8   224     2.6   960.0    0.00 
 327    8:10   0.00   36.1    99    1.4   249     3.9   960.3    0.00 
 327    8:20   0.00   36.2    99    1.1   228     3.9   960.4    0.00 
 327    8:30   0.01   36.0   100    0.5    50     2.4   960.4    0.00 
 327    8:40   0.01   37.0   100    1.6    90     6.4   960.1    0.00 
 327    8:50   0.01   38.4    98    1.9   107     6.4   959.9    0.00 
 327    9:00   0.01   37.2    98    0.3   224     2.6   960.1    0.00 
 327    9:10   0.01   38.5    99    0.6   166     4.2   960.3    0.00 
 327    9:20   0.01   39.0    99    0.4    75     2.8   960.6    0.00 
 327    9:30   0.01   39.4    99    0.7    62     2.3   960.7    0.00 
 327    9:40   0.01   40.1    99    1.2    73     2.7   961.1    0.00 
 327    9:50   0.01   41.0    99    0.8    69     2.5   961.5    0.00 
 327   10:00   0.03   41.9    99    0.5    77     1.4   961.5    0.00 
 327   10:10   0.03   42.9    99    0.0    70     0.5   961.5    0.00 
 327   10:20   0.03   44.1    98    0.2    72     1.0   961.6    0.00 
 327   10:30   0.03   45.0    97    1.1    70     2.0   961.7    0.00 
 327   10:40   0.03   45.8    94    1.1    66     3.0   961.6    0.00 
 327   10:50   0.03   47.2    89    0.7   232     3.1   961.6    0.00 
 327   11:00   0.03   48.8    85    1.0   229     2.8   961.8    0.00 
 327   11:10   0.03   50.7    74    1.3   255     3.3   961.9    0.00 
 327   11:20   0.03   52.1    69    2.1   234     4.5   962.1    0.00 
 327   11:30   0.07   52.9    62    1.7   219     4.2   962.2    0.00 
 327   11:40   0.03   54.0    60    2.4   226     9.0   962.4    0.00 
 327   11:50   0.03   55.9    48    3.9   238     8.8   962.2    0.00 
 327   12:00   0.03   56.5    48    3.1   246     8.4   962.1    0.00 
 327   12:10   0.03   57.3    44    3.4   238     8.5   962.1    0.00 
 327   12:20   0.03   57.8    40    3.7   240     9.0   962.2    0.00 
 327   12:30   0.05   58.7    37    2.7   235     6.4   962.0    0.00 
 327   12:40   0.04   58.9    38    2.2   251     5.3   961.7    0.00 
 327   12:50   0.04   59.3    36    2.0   267     7.3   961.7    0.00 
 327   13:00   0.12   59.8    35    2.2   226     7.9   961.4    0.00 
 327   13:10   0.06   60.2    35    4.1   247     7.7   961.1    0.00 
 327   13:20   0.07   60.5    34    3.5   227     6.4   961.0    0.00 
 327   13:30   0.08   61.3    34    3.4   250     6.9   961.0    0.00 
 327   13:40   0.10   61.3    33    4.0   246     7.2   960.8    0.00 
 327   13:50   0.12   61.4    33    3.9   236     9.2   960.8    0.00 
 327   14:00   0.11   61.7    35    3.4   242     9.7   960.8    0.00 
 327   14:10   0.10   61.8    36    3.8   249    10.0   960.7    0.00 
 327   14:20   0.11   62.2    36    3.1   246     7.0   960.5    0.00 
 327   14:30   0.11   62.0    33    3.4   244     7.5   960.4    0.00 
 327   14:40   0.29   62.9    32    2.7   263     7.2   960.2    0.00 
 327   14:50   0.37   63.7    32    2.6   249     7.2   960.1    0.00 
 327   15:00   0.35   64.0    31    2.4   236     5.3   960.1    0.00 
 327   15:10   0.34   64.3    30    3.6   237     6.4   959.8    0.00 
 327   15:20   0.33   64.8    30    2.7   253     6.8   959.8    0.00 
 327   15:30   0.28   64.9    29    3.0   244     6.8   959.8    0.00 

Return to Hastings Natural History Reservation graphs page.


Western Regional Climate Center,wrcc@dri.edu